sensor_id;sensor_type;location;lat;lon;timestamp;P1;durP1;ratioP1;P2;durP2;ratioP2
13032;SDS011;6583;42.632;23.298;2023-06-10T00:00:05;5.72;;;5.22;;
13032;SDS011;6583;42.632;23.298;2023-06-10T00:02:33;5.97;;;5.35;;
13032;SDS011;6583;42.632;23.298;2023-06-10T00:04:59;6.63;;;5.32;;
13032;SDS011;6583;42.632;23.298;2023-06-10T00:07:26;6.45;;;5.65;;
13032;SDS011;6583;42.632;23.298;2023-06-10T00:09:53;7.28;;;5.60;;
13032;SDS011;6583;42.632;23.298;2023-06-10T00:12:20;8.43;;;5.70;;
13032;SDS011;6583;42.632;23.298;2023-06-10T00:14:48;6.68;;;6.07;;
13032;SDS011;6583;42.632;23.298;2023-06-10T00:17:16;6.22;;;5.53;;
13032;SDS011;6583;42.632;23.298;2023-06-10T00:19:43;6.00;;;5.50;;
13032;SDS011;6583;42.632;23.298;2023-06-10T00:22:11;9.23;;;6.45;;
13032;SDS011;6583;42.632;23.298;2023-06-10T00:24:39;7.40;;;6.70;;
13032;SDS011;6583;42.632;23.298;2023-06-10T00:27:07;7.03;;;6.35;;
13032;SDS011;6583;42.632;23.298;2023-06-10T00:29:33;9.65;;;6.63;;
13032;SDS011;6583;42.632;23.298;2023-06-10T00:32:01;7.65;;;6.63;;
13032;SDS011;6583;42.632;23.298;2023-06-10T00:34:29;6.35;;;5.75;;
13032;SDS011;6583;42.632;23.298;2023-06-10T00:36:55;6.00;;;5.38;;
13032;SDS011;6583;42.632;23.298;2023-06-10T00:39:22;7.93;;;7.22;;
13032;SDS011;6583;42.632;23.298;2023-06-10T00:41:49;8.60;;;7.65;;
13032;SDS011;6583;42.632;23.298;2023-06-10T00:44:15;10.02;;;8.18;;
13032;SDS011;6583;42.632;23.298;2023-06-10T00:46:42;9.38;;;8.57;;
13032;SDS011;6583;42.632;23.298;2023-06-10T00:49:11;8.10;;;7.32;;
13032;SDS011;6583;42.632;23.298;2023-06-10T00:51:38;9.45;;;8.32;;
13032;SDS011;6583;42.632;23.298;2023-06-10T00:54:05;7.00;;;6.30;;
13032;SDS011;6583;42.632;23.298;2023-06-10T00:56:33;9.80;;;8.88;;
13032;SDS011;6583;42.632;23.298;2023-06-10T00:59:00;9.82;;;8.77;;
13032;SDS011;6583;42.632;23.298;2023-06-10T01:01:28;9.63;;;8.27;;
13032;SDS011;6583;42.632;23.298;2023-06-10T01:03:54;9.32;;;8.38;;
13032;SDS011;6583;42.632;23.298;2023-06-10T01:06:27;7.60;;;6.85;;
13032;SDS011;6583;42.632;23.298;2023-06-10T01:09:06;12.05;;;10.85;;
13032;SDS011;6583;42.632;23.298;2023-06-10T01:11:41;13.07;;;11.25;;
13032;SDS011;6583;42.632;23.298;2023-06-10T01:14:18;9.73;;;8.80;;
13032;SDS011;6583;42.632;23.298;2023-06-10T01:16:45;10.73;;;9.38;;
13032;SDS011;6583;42.632;23.298;2023-06-10T01:19:13;11.25;;;10.00;;
13032;SDS011;6583;42.632;23.298;2023-06-10T01:21:44;10.40;;;9.40;;
13032;SDS011;6583;42.632;23.298;2023-06-10T01:24:13;10.45;;;9.35;;
13032;SDS011;6583;42.632;23.298;2023-06-10T01:26:43;10.73;;;9.68;;
13032;SDS011;6583;42.632;23.298;2023-06-10T01:29:13;11.18;;;9.95;;
13032;SDS011;6583;42.632;23.298;2023-06-10T01:31:46;12.45;;;10.77;;
13032;SDS011;6583;42.632;23.298;2023-06-10T01:34:16;11.80;;;10.70;;
13032;SDS011;6583;42.632;23.298;2023-06-10T01:36:47;10.80;;;9.70;;
13032;SDS011;6583;42.632;23.298;2023-06-10T01:39:16;10.73;;;9.63;;
13032;SDS011;6583;42.632;23.298;2023-06-10T01:41:44;8.68;;;7.88;;
13032;SDS011;6583;42.632;23.298;2023-06-10T01:44:11;9.25;;;8.45;;
13032;SDS011;6583;42.632;23.298;2023-06-10T01:46:38;12.05;;;9.98;;
13032;SDS011;6583;42.632;23.298;2023-06-10T01:49:05;10.30;;;9.40;;
13032;SDS011;6583;42.632;23.298;2023-06-10T01:51:32;8.95;;;8.05;;
13032;SDS011;6583;42.632;23.298;2023-06-10T01:54:00;11.85;;;10.43;;
13032;SDS011;6583;42.632;23.298;2023-06-10T01:56:26;9.95;;;9.05;;
13032;SDS011;6583;42.632;23.298;2023-06-10T01:58:53;9.73;;;8.77;;
13032;SDS011;6583;42.632;23.298;2023-06-10T02:01:23;11.63;;;9.60;;
13032;SDS011;6583;42.632;23.298;2023-06-10T02:03:50;9.90;;;9.00;;
13032;SDS011;6583;42.632;23.298;2023-06-10T02:06:17;12.73;;;9.02;;
13032;SDS011;6583;42.632;23.298;2023-06-10T02:08:43;9.65;;;8.73;;
13032;SDS011;6583;42.632;23.298;2023-06-10T02:11:11;8.85;;;8.05;;
13032;SDS011;6583;42.632;23.298;2023-06-10T02:13:38;8.95;;;8.15;;
13032;SDS011;6583;42.632;23.298;2023-06-10T02:16:05;9.18;;;8.27;;
13032;SDS011;6583;42.632;23.298;2023-06-10T02:18:32;8.85;;;8.05;;
13032;SDS011;6583;42.632;23.298;2023-06-10T02:20:59;8.95;;;8.15;;
13032;SDS011;6583;42.632;23.298;2023-06-10T02:23:26;9.00;;;8.10;;
13032;SDS011;6583;42.632;23.298;2023-06-10T02:25:52;8.90;;;8.00;;
13032;SDS011;6583;42.632;23.298;2023-06-10T02:28:20;8.88;;;8.02;;
13032;SDS011;6583;42.632;23.298;2023-06-10T02:30:47;8.52;;;7.72;;
13032;SDS011;6583;42.632;23.298;2023-06-10T02:33:13;8.38;;;7.57;;
13032;SDS011;6583;42.632;23.298;2023-06-10T02:35:42;9.93;;;8.18;;
13032;SDS011;6583;42.632;23.298;2023-06-10T02:38:09;7.65;;;6.95;;
13032;SDS011;6583;42.632;23.298;2023-06-10T02:40:36;7.93;;;6.97;;
13032;SDS011;6583;42.632;23.298;2023-06-10T02:43:02;7.85;;;7.15;;
13032;SDS011;6583;42.632;23.298;2023-06-10T02:45:31;7.10;;;6.40;;
13032;SDS011;6583;42.632;23.298;2023-06-10T02:47:57;7.22;;;6.53;;
13032;SDS011;6583;42.632;23.298;2023-06-10T02:50:24;8.07;;;6.47;;
13032;SDS011;6583;42.632;23.298;2023-06-10T02:52:50;7.15;;;6.45;;
13032;SDS011;6583;42.632;23.298;2023-06-10T02:55:17;7.57;;;6.50;;
13032;SDS011;6583;42.632;23.298;2023-06-10T02:57:44;6.75;;;6.10;;
13032;SDS011;6583;42.632;23.298;2023-06-10T03:00:11;7.22;;;6.45;;
13032;SDS011;6583;42.632;23.298;2023-06-10T03:02:40;6.60;;;5.90;;
13032;SDS011;6583;42.632;23.298;2023-06-10T03:05:07;6.47;;;5.88;;
13032;SDS011;6583;42.632;23.298;2023-06-10T03:07:35;6.32;;;5.72;;
13032;SDS011;6583;42.632;23.298;2023-06-10T03:10:02;6.47;;;5.88;;
13032;SDS011;6583;42.632;23.298;2023-06-10T03:12:30;7.63;;;5.68;;
13032;SDS011;6583;42.632;23.298;2023-06-10T03:14:56;8.02;;;5.40;;
13032;SDS011;6583;42.632;23.298;2023-06-10T03:17:23;6.85;;;5.18;;
13032;SDS011;6583;42.632;23.298;2023-06-10T03:19:51;6.38;;;5.72;;
13032;SDS011;6583;42.632;23.298;2023-06-10T03:22:18;7.50;;;5.47;;
13032;SDS011;6583;42.632;23.298;2023-06-10T03:24:45;5.88;;;5.32;;
13032;SDS011;6583;42.632;23.298;2023-06-10T03:27:15;6.38;;;5.20;;
13032;SDS011;6583;42.632;23.298;2023-06-10T03:29:42;6.18;;;5.57;;
13032;SDS011;6583;42.632;23.298;2023-06-10T03:32:09;6.53;;;5.55;;
13032;SDS011;6583;42.632;23.298;2023-06-10T03:34:36;6.68;;;5.97;;
13032;SDS011;6583;42.632;23.298;2023-06-10T03:37:05;6.88;;;5.43;;
13032;SDS011;6583;42.632;23.298;2023-06-10T03:39:31;6.32;;;5.72;;
13032;SDS011;6583;42.632;23.298;2023-06-10T03:41:58;8.50;;;6.03;;
13032;SDS011;6583;42.632;23.298;2023-06-10T03:44:25;7.50;;;6.78;;
13032;SDS011;6583;42.632;23.298;2023-06-10T03:46:52;7.93;;;7.13;;
13032;SDS011;6583;42.632;23.298;2023-06-10T03:49:19;7.65;;;6.95;;
13032;SDS011;6583;42.632;23.298;2023-06-10T03:51:46;7.63;;;6.80;;
13032;SDS011;6583;42.632;23.298;2023-06-10T03:54:14;7.93;;;6.95;;
13032;SDS011;6583;42.632;23.298;2023-06-10T03:56:41;7.00;;;6.30;;
13032;SDS011;6583;42.632;23.298;2023-06-10T03:59:08;6.72;;;6.05;;
13032;SDS011;6583;42.632;23.298;2023-06-10T04:01:34;7.50;;;6.75;;
13032;SDS011;6583;42.632;23.298;2023-06-10T04:04:02;6.97;;;6.28;;
13032;SDS011;6583;42.632;23.298;2023-06-10T04:06:29;7.93;;;5.85;;
13032;SDS011;6583;42.632;23.298;2023-06-10T04:08:56;7.65;;;6.85;;
13032;SDS011;6583;42.632;23.298;2023-06-10T04:11:25;7.85;;;6.50;;
13032;SDS011;6583;42.632;23.298;2023-06-10T04:13:51;6.57;;;5.72;;
13032;SDS011;6583;42.632;23.298;2023-06-10T04:16:18;5.88;;;5.38;;
13032;SDS011;6583;42.632;23.298;2023-06-10T04:18:46;6.18;;;5.68;;
13032;SDS011;6583;42.632;23.298;2023-06-10T04:21:12;9.82;;;6.55;;
13032;SDS011;6583;42.632;23.298;2023-06-10T04:23:39;7.78;;;6.53;;
13032;SDS011;6583;42.632;23.298;2023-06-10T04:26:06;8.77;;;5.97;;
13032;SDS011;6583;42.632;23.298;2023-06-10T04:28:35;6.70;;;6.07;;
13032;SDS011;6583;42.632;23.298;2023-06-10T04:31:01;6.15;;;5.55;;
13032;SDS011;6583;42.632;23.298;2023-06-10T04:33:29;7.00;;;5.45;;
13032;SDS011;6583;42.632;23.298;2023-06-10T04:35:56;6.07;;;5.50;;
13032;SDS011;6583;42.632;23.298;2023-06-10T04:38:24;9.05;;;6.28;;
13032;SDS011;6583;42.632;23.298;2023-06-10T04:40:51;6.97;;;6.15;;
13032;SDS011;6583;42.632;23.298;2023-06-10T04:43:18;6.78;;;6.10;;
13032;SDS011;6583;42.632;23.298;2023-06-10T04:45:46;14.50;;;6.60;;
13032;SDS011;6583;42.632;23.298;2023-06-10T04:48:12;7.50;;;6.65;;
13032;SDS011;6583;42.632;23.298;2023-06-10T04:50:40;7.00;;;6.30;;
13032;SDS011;6583;42.632;23.298;2023-06-10T04:53:06;6.28;;;5.70;;
13032;SDS011;6583;42.632;23.298;2023-06-10T04:55:33;8.27;;;7.43;;
13032;SDS011;6583;42.632;23.298;2023-06-10T04:58:00;9.07;;;8.18;;
13032;SDS011;6583;42.632;23.298;2023-06-10T05:00:27;9.88;;;9.00;;
13032;SDS011;6583;42.632;23.298;2023-06-10T05:02:55;10.15;;;7.97;;
13032;SDS011;6583;42.632;23.298;2023-06-10T05:05:21;9.95;;;8.95;;
13032;SDS011;6583;42.632;23.298;2023-06-10T05:07:48;7.28;;;6.68;;
13032;SDS011;6583;42.632;23.298;2023-06-10T05:10:15;8.02;;;7.22;;
13032;SDS011;6583;42.632;23.298;2023-06-10T05:12:41;6.80;;;6.22;;
13032;SDS011;6583;42.632;23.298;2023-06-10T05:15:08;7.10;;;6.45;;
13032;SDS011;6583;42.632;23.298;2023-06-10T05:17:36;8.30;;;7.50;;
13032;SDS011;6583;42.632;23.298;2023-06-10T05:20:04;8.57;;;7.78;;
13032;SDS011;6583;42.632;23.298;2023-06-10T05:22:32;7.57;;;6.80;;
13032;SDS011;6583;42.632;23.298;2023-06-10T05:24:59;6.70;;;6.10;;
13032;SDS011;6583;42.632;23.298;2023-06-10T05:27:26;10.48;;;9.43;;
13032;SDS011;6583;42.632;23.298;2023-06-10T05:29:52;8.18;;;7.45;;
13032;SDS011;6583;42.632;23.298;2023-06-10T05:32:19;10.20;;;9.30;;
13032;SDS011;6583;42.632;23.298;2023-06-10T05:34:46;10.73;;;9.63;;
13032;SDS011;6583;42.632;23.298;2023-06-10T05:37:14;10.88;;;9.85;;
13032;SDS011;6583;42.632;23.298;2023-06-10T05:39:40;12.40;;;11.20;;
13032;SDS011;6583;42.632;23.298;2023-06-10T05:42:07;12.77;;;11.48;;
13032;SDS011;6583;42.632;23.298;2023-06-10T05:44:35;10.73;;;9.80;;
13032;SDS011;6583;42.632;23.298;2023-06-10T05:47:02;9.13;;;8.43;;
13032;SDS011;6583;42.632;23.298;2023-06-10T05:49:29;12.93;;;11.73;;
13032;SDS011;6583;42.632;23.298;2023-06-10T05:51:55;12.70;;;11.50;;
13032;SDS011;6583;42.632;23.298;2023-06-10T05:54:25;11.90;;;10.75;;
13032;SDS011;6583;42.632;23.298;2023-06-10T05:56:52;9.50;;;8.70;;
13032;SDS011;6583;42.632;23.298;2023-06-10T05:59:18;10.70;;;9.63;;
13032;SDS011;6583;42.632;23.298;2023-06-10T06:01:45;12.05;;;10.95;;
13032;SDS011;6583;42.632;23.298;2023-06-10T06:04:12;12.48;;;11.18;;
13032;SDS011;6583;42.632;23.298;2023-06-10T06:06:38;12.85;;;11.10;;
13032;SDS011;6583;42.632;23.298;2023-06-10T06:09:06;13.07;;;11.90;;
13032;SDS011;6583;42.632;23.298;2023-06-10T06:11:34;13.35;;;11.95;;
13032;SDS011;6583;42.632;23.298;2023-06-10T06:14:01;14.50;;;13.20;;
13032;SDS011;6583;42.632;23.298;2023-06-10T06:16:27;16.27;;;14.70;;
13032;SDS011;6583;42.632;23.298;2023-06-10T06:18:54;16.33;;;14.65;;
13032;SDS011;6583;42.632;23.298;2023-06-10T06:21:21;16.38;;;14.80;;
13032;SDS011;6583;42.632;23.298;2023-06-10T06:23:48;16.20;;;14.63;;
13032;SDS011;6583;42.632;23.298;2023-06-10T06:26:14;15.38;;;13.98;;
13032;SDS011;6583;42.632;23.298;2023-06-10T06:28:42;15.85;;;14.35;;
13032;SDS011;6583;42.632;23.298;2023-06-10T06:31:09;16.60;;;15.02;;
13032;SDS011;6583;42.632;23.298;2023-06-10T06:33:37;16.25;;;14.75;;
13032;SDS011;6583;42.632;23.298;2023-06-10T06:36:04;16.55;;;14.82;;
13032;SDS011;6583;42.632;23.298;2023-06-10T06:38:30;16.13;;;14.52;;
13032;SDS011;6583;42.632;23.298;2023-06-10T06:40:57;19.25;;;14.38;;
13032;SDS011;6583;42.632;23.298;2023-06-10T06:43:27;15.85;;;14.35;;
13032;SDS011;6583;42.632;23.298;2023-06-10T06:45:56;16.40;;;14.80;;
13032;SDS011;6583;42.632;23.298;2023-06-10T06:48:22;17.15;;;14.80;;
13032;SDS011;6583;42.632;23.298;2023-06-10T06:50:49;16.83;;;15.13;;
13032;SDS011;6583;42.632;23.298;2023-06-10T06:53:16;17.98;;;16.27;;
13032;SDS011;6583;42.632;23.298;2023-06-10T06:55:43;16.52;;;14.88;;
13032;SDS011;6583;42.632;23.298;2023-06-10T06:58:09;18.05;;;16.35;;
13032;SDS011;6583;42.632;23.298;2023-06-10T07:00:36;18.50;;;16.52;;
13032;SDS011;6583;42.632;23.298;2023-06-10T07:03:04;17.80;;;15.50;;
13032;SDS011;6583;42.632;23.298;2023-06-10T07:05:31;15.85;;;14.25;;
13032;SDS011;6583;42.632;23.298;2023-06-10T07:07:57;17.38;;;15.63;;
13032;SDS011;6583;42.632;23.298;2023-06-10T07:10:24;15.57;;;14.05;;
13032;SDS011;6583;42.632;23.298;2023-06-10T07:12:51;16.05;;;14.32;;
13032;SDS011;6583;42.632;23.298;2023-06-10T07:15:18;14.90;;;13.50;;
13032;SDS011;6583;42.632;23.298;2023-06-10T07:17:45;14.98;;;13.57;;
13032;SDS011;6583;42.632;23.298;2023-06-10T07:20:13;15.70;;;14.30;;
13032;SDS011;6583;42.632;23.298;2023-06-10T07:22:40;16.10;;;14.35;;
13032;SDS011;6583;42.632;23.298;2023-06-10T07:25:08;15.18;;;13.77;;
13032;SDS011;6583;42.632;23.298;2023-06-10T07:27:34;13.13;;;12.02;;
13032;SDS011;6583;42.632;23.298;2023-06-10T07:30:02;12.38;;;11.18;;
13032;SDS011;6583;42.632;23.298;2023-06-10T07:32:29;12.65;;;11.45;;
13032;SDS011;6583;42.632;23.298;2023-06-10T07:34:56;13.55;;;12.25;;
13032;SDS011;6583;42.632;23.298;2023-06-10T07:37:24;13.55;;;12.25;;
13032;SDS011;6583;42.632;23.298;2023-06-10T07:39:51;13.13;;;11.80;;
13032;SDS011;6583;42.632;23.298;2023-06-10T07:42:17;10.48;;;9.43;;
13032;SDS011;6583;42.632;23.298;2023-06-10T07:44:44;10.93;;;9.55;;
13032;SDS011;6583;42.632;23.298;2023-06-10T07:47:11;9.50;;;8.60;;
13032;SDS011;6583;42.632;23.298;2023-06-10T07:49:40;10.30;;;9.30;;
13032;SDS011;6583;42.632;23.298;2023-06-10T07:52:07;9.40;;;8.52;;
13032;SDS011;6583;42.632;23.298;2023-06-10T07:54:35;10.48;;;9.38;;
13032;SDS011;6583;42.632;23.298;2023-06-10T07:57:03;9.48;;;8.57;;
13032;SDS011;6583;42.632;23.298;2023-06-10T07:59:31;8.40;;;7.47;;
13032;SDS011;6583;42.632;23.298;2023-06-10T08:01:58;8.18;;;7.38;;
13032;SDS011;6583;42.632;23.298;2023-06-10T08:04:25;8.55;;;7.75;;
13032;SDS011;6583;42.632;23.298;2023-06-10T08:06:51;9.57;;;7.00;;
13032;SDS011;6583;42.632;23.298;2023-06-10T08:09:18;8.70;;;8.00;;
13032;SDS011;6583;42.632;23.298;2023-06-10T08:11:47;8.13;;;7.25;;
13032;SDS011;6583;42.632;23.298;2023-06-10T08:14:15;9.52;;;7.72;;
13032;SDS011;6583;42.632;23.298;2023-06-10T08:16:43;7.55;;;6.82;;
13032;SDS011;6583;42.632;23.298;2023-06-10T08:19:10;9.07;;;7.03;;
13032;SDS011;6583;42.632;23.298;2023-06-10T08:21:36;7.75;;;7.03;;
13032;SDS011;6583;42.632;23.298;2023-06-10T08:24:04;6.85;;;6.25;;
13032;SDS011;6583;42.632;23.298;2023-06-10T08:26:31;6.22;;;5.63;;
13032;SDS011;6583;42.632;23.298;2023-06-10T08:29:00;6.45;;;5.75;;
13032;SDS011;6583;42.632;23.298;2023-06-10T08:31:26;8.02;;;5.57;;
13032;SDS011;6583;42.632;23.298;2023-06-10T08:33:53;5.65;;;5.15;;
13032;SDS011;6583;42.632;23.298;2023-06-10T08:36:20;6.82;;;5.97;;
13032;SDS011;6583;42.632;23.298;2023-06-10T08:38:46;5.43;;;4.93;;
13032;SDS011;6583;42.632;23.298;2023-06-10T08:41:14;5.20;;;4.32;;
13032;SDS011;6583;42.632;23.298;2023-06-10T08:43:44;5.93;;;3.97;;
13032;SDS011;6583;42.632;23.298;2023-06-10T08:46:15;5.47;;;4.70;;
13032;SDS011;6583;42.632;23.298;2023-06-10T08:48:43;4.90;;;4.47;;
13032;SDS011;6583;42.632;23.298;2023-06-10T08:51:10;6.10;;;4.22;;
13032;SDS011;6583;42.632;23.298;2023-06-10T08:53:38;4.53;;;4.13;;
13032;SDS011;6583;42.632;23.298;2023-06-10T08:56:14;4.68;;;4.00;;
13032;SDS011;6583;42.632;23.298;2023-06-10T08:58:42;7.07;;;5.20;;
13032;SDS011;6583;42.632;23.298;2023-06-10T09:01:09;21.08;;;5.55;;
13032;SDS011;6583;42.632;23.298;2023-06-10T09:03:38;5.07;;;4.32;;
13032;SDS011;6583;42.632;23.298;2023-06-10T09:06:05;4.85;;;4.50;;
13032;SDS011;6583;42.632;23.298;2023-06-10T09:08:33;4.72;;;3.88;;
13032;SDS011;6583;42.632;23.298;2023-06-10T09:11:00;3.80;;;3.50;;
13032;SDS011;6583;42.632;23.298;2023-06-10T09:13:27;3.85;;;3.53;;
13032;SDS011;6583;42.632;23.298;2023-06-10T09:15:54;4.70;;;4.00;;
13032;SDS011;6583;42.632;23.298;2023-06-10T09:18:25;3.42;;;3.10;;
13032;SDS011;6583;42.632;23.298;2023-06-10T09:20:53;3.55;;;3.25;;
13032;SDS011;6583;42.632;23.298;2023-06-10T09:23:20;3.10;;;2.90;;
13032;SDS011;6583;42.632;23.298;2023-06-10T09:25:51;3.00;;;2.70;;
13032;SDS011;6583;42.632;23.298;2023-06-10T09:28:22;4.38;;;3.90;;
13032;SDS011;6583;42.632;23.298;2023-06-10T09:30:49;5.25;;;4.68;;
13032;SDS011;6583;42.632;23.298;2023-06-10T09:33:15;4.70;;;4.30;;
13032;SDS011;6583;42.632;23.298;2023-06-10T09:35:45;5.45;;;4.10;;
13032;SDS011;6583;42.632;23.298;2023-06-10T09:38:15;4.07;;;3.72;;
13032;SDS011;6583;42.632;23.298;2023-06-10T09:40:49;4.43;;;3.88;;
13032;SDS011;6583;42.632;23.298;2023-06-10T09:43:17;5.45;;;4.95;;
13032;SDS011;6583;42.632;23.298;2023-06-10T09:45:44;5.38;;;4.63;;
13032;SDS011;6583;42.632;23.298;2023-06-10T09:48:13;7.15;;;5.30;;
13032;SDS011;6583;42.632;23.298;2023-06-10T09:50:41;6.80;;;5.00;;
13032;SDS011;6583;42.632;23.298;2023-06-10T09:53:08;5.35;;;4.85;;
13032;SDS011;6583;42.632;23.298;2023-06-10T09:55:38;5.45;;;4.95;;
13032;SDS011;6583;42.632;23.298;2023-06-10T09:58:05;5.72;;;5.22;;
13032;SDS011;6583;42.632;23.298;2023-06-10T10:00:32;6.13;;;5.38;;
13032;SDS011;6583;42.632;23.298;2023-06-10T10:02:59;6.13;;;5.10;;
13032;SDS011;6583;42.632;23.298;2023-06-10T10:05:26;6.32;;;5.72;;
13032;SDS011;6583;42.632;23.298;2023-06-10T10:07:54;5.43;;;4.88;;
13032;SDS011;6583;42.632;23.298;2023-06-10T10:10:22;5.68;;;5.10;;
13032;SDS011;6583;42.632;23.298;2023-06-10T10:12:53;5.50;;;5.00;;
13032;SDS011;6583;42.632;23.298;2023-06-10T10:15:22;6.07;;;5.20;;
13032;SDS011;6583;42.632;23.298;2023-06-10T10:17:52;5.28;;;4.85;;
13032;SDS011;6583;42.632;23.298;2023-06-10T10:20:24;7.28;;;5.65;;
13032;SDS011;6583;42.632;23.298;2023-06-10T10:22:56;6.43;;;5.60;;
13032;SDS011;6583;42.632;23.298;2023-06-10T10:25:23;5.70;;;4.95;;
13032;SDS011;6583;42.632;23.298;2023-06-10T10:27:56;5.55;;;4.75;;
13032;SDS011;6583;42.632;23.298;2023-06-10T10:30:28;5.07;;;4.65;;
13032;SDS011;6583;42.632;23.298;2023-06-10T10:33:04;5.40;;;4.90;;
13032;SDS011;6583;42.632;23.298;2023-06-10T10:35:34;5.30;;;4.40;;
13032;SDS011;6583;42.632;23.298;2023-06-10T10:38:02;7.00;;;4.90;;
13032;SDS011;6583;42.632;23.298;2023-06-10T10:40:30;5.45;;;4.22;;
13032;SDS011;6583;42.632;23.298;2023-06-10T10:42:59;5.30;;;4.45;;
13032;SDS011;6583;42.632;23.298;2023-06-10T10:45:27;4.82;;;4.32;;
13032;SDS011;6583;42.632;23.298;2023-06-10T10:47:54;4.75;;;4.30;;
13032;SDS011;6583;42.632;23.298;2023-06-10T10:50:22;5.68;;;4.28;;
13032;SDS011;6583;42.632;23.298;2023-06-10T10:52:53;5.00;;;4.50;;
13032;SDS011;6583;42.632;23.298;2023-06-10T10:55:21;4.82;;;4.53;;
13032;SDS011;6583;42.632;23.298;2023-06-10T10:57:55;6.38;;;4.20;;
13032;SDS011;6583;42.632;23.298;2023-06-10T11:00:30;4.88;;;4.38;;
13032;SDS011;6583;42.632;23.298;2023-06-10T11:02:58;5.30;;;4.80;;
13032;SDS011;6583;42.632;23.298;2023-06-10T11:05:35;6.03;;;4.55;;
13032;SDS011;6583;42.632;23.298;2023-06-10T11:08:04;5.13;;;4.53;;
13032;SDS011;6583;42.632;23.298;2023-06-10T11:10:32;4.82;;;4.40;;
13032;SDS011;6583;42.632;23.298;2023-06-10T11:12:59;5.78;;;4.40;;
13032;SDS011;6583;42.632;23.298;2023-06-10T11:15:27;4.80;;;4.40;;
13032;SDS011;6583;42.632;23.298;2023-06-10T11:18:13;5.60;;;4.60;;
13032;SDS011;6583;42.632;23.298;2023-06-10T11:20:41;4.70;;;4.05;;
13032;SDS011;6583;42.632;23.298;2023-06-10T11:23:09;7.10;;;4.18;;
13032;SDS011;6583;42.632;23.298;2023-06-10T11:25:38;4.70;;;4.30;;
13032;SDS011;6583;42.632;23.298;2023-06-10T11:28:08;4.68;;;4.28;;
13032;SDS011;6583;42.632;23.298;2023-06-10T11:30:44;5.70;;;4.40;;
13032;SDS011;6583;42.632;23.298;2023-06-10T11:33:14;4.50;;;4.10;;
13032;SDS011;6583;42.632;23.298;2023-06-10T11:35:41;5.00;;;4.60;;
13032;SDS011;6583;42.632;23.298;2023-06-10T11:38:08;4.95;;;4.55;;
13032;SDS011;6583;42.632;23.298;2023-06-10T11:40:36;5.40;;;4.68;;
13032;SDS011;6583;42.632;23.298;2023-06-10T11:43:03;4.97;;;4.47;;
13032;SDS011;6583;42.632;23.298;2023-06-10T11:45:30;5.90;;;5.03;;
13032;SDS011;6583;42.632;23.298;2023-06-10T11:47:57;5.75;;;5.15;;
13032;SDS011;6583;42.632;23.298;2023-06-10T11:50:29;5.90;;;5.40;;
13032;SDS011;6583;42.632;23.298;2023-06-10T11:52:56;5.82;;;4.82;;
13032;SDS011;6583;42.632;23.298;2023-06-10T11:55:23;5.82;;;4.57;;
13032;SDS011;6583;42.632;23.298;2023-06-10T11:57:50;5.13;;;4.68;;
13032;SDS011;6583;42.632;23.298;2023-06-10T12:00:22;5.25;;;4.75;;
13032;SDS011;6583;42.632;23.298;2023-06-10T12:02:54;4.65;;;4.22;;
13032;SDS011;6583;42.632;23.298;2023-06-10T12:05:22;5.65;;;4.93;;
13032;SDS011;6583;42.632;23.298;2023-06-10T12:07:50;5.55;;;4.60;;
13032;SDS011;6583;42.632;23.298;2023-06-10T12:10:38;4.32;;;3.97;;
13032;SDS011;6583;42.632;23.298;2023-06-10T12:13:06;4.80;;;4.30;;
13032;SDS011;6583;42.632;23.298;2023-06-10T12:15:33;4.95;;;4.47;;
13032;SDS011;6583;42.632;23.298;2023-06-10T12:17:59;4.88;;;4.18;;
13032;SDS011;6583;42.632;23.298;2023-06-10T12:20:27;5.45;;;4.95;;
13032;SDS011;6583;42.632;23.298;2023-06-10T12:22:56;6.22;;;4.60;;
13032;SDS011;6583;42.632;23.298;2023-06-10T12:25:26;4.63;;;4.30;;
13032;SDS011;6583;42.632;23.298;2023-06-10T12:27:54;5.93;;;4.00;;
13032;SDS011;6583;42.632;23.298;2023-06-10T12:30:23;4.93;;;4.32;;
13032;SDS011;6583;42.632;23.298;2023-06-10T12:32:51;5.25;;;4.85;;
13032;SDS011;6583;42.632;23.298;2023-06-10T12:35:18;5.60;;;4.50;;
13032;SDS011;6583;42.632;23.298;2023-06-10T12:37:54;5.10;;;4.65;;
13032;SDS011;6583;42.632;23.298;2023-06-10T12:40:26;4.65;;;4.22;;
13032;SDS011;6583;42.632;23.298;2023-06-10T12:42:54;5.65;;;4.75;;
13032;SDS011;6583;42.632;23.298;2023-06-10T12:45:27;5.30;;;4.80;;
13032;SDS011;6583;42.632;23.298;2023-06-10T12:48:03;7.28;;;4.60;;
13032;SDS011;6583;42.632;23.298;2023-06-10T12:50:32;7.38;;;5.15;;
13032;SDS011;6583;42.632;23.298;2023-06-10T12:52:59;5.32;;;4.82;;
13032;SDS011;6583;42.632;23.298;2023-06-10T12:55:27;5.22;;;4.45;;
13032;SDS011;6583;42.632;23.298;2023-06-10T12:57:54;5.53;;;4.95;;
13032;SDS011;6583;42.632;23.298;2023-06-10T13:00:22;5.63;;;5.13;;
13032;SDS011;6583;42.632;23.298;2023-06-10T13:02:51;5.38;;;4.95;;
13032;SDS011;6583;42.632;23.298;2023-06-10T13:05:18;5.00;;;4.60;;
13032;SDS011;6583;42.632;23.298;2023-06-10T13:07:45;5.82;;;4.78;;
13032;SDS011;6583;42.632;23.298;2023-06-10T13:10:12;5.30;;;4.30;;
13032;SDS011;6583;42.632;23.298;2023-06-10T13:12:41;5.40;;;4.82;;
13032;SDS011;6583;42.632;23.298;2023-06-10T13:15:08;5.18;;;4.63;;
13032;SDS011;6583;42.632;23.298;2023-06-10T13:17:35;4.45;;;3.92;;
13032;SDS011;6583;42.632;23.298;2023-06-10T13:20:02;5.00;;;4.13;;
13032;SDS011;6583;42.632;23.298;2023-06-10T13:22:29;4.88;;;4.53;;
13032;SDS011;6583;42.632;23.298;2023-06-10T13:24:57;4.50;;;4.10;;
13032;SDS011;6583;42.632;23.298;2023-06-10T13:27:24;4.60;;;4.20;;
13032;SDS011;6583;42.632;23.298;2023-06-10T13:29:53;4.63;;;4.22;;
13032;SDS011;6583;42.632;23.298;2023-06-10T13:32:20;8.55;;;4.88;;
13032;SDS011;6583;42.632;23.298;2023-06-10T13:34:47;5.47;;;4.95;;
13032;SDS011;6583;42.632;23.298;2023-06-10T13:37:14;7.05;;;5.40;;
13032;SDS011;6583;42.632;23.298;2023-06-10T13:39:42;5.28;;;4.75;;
13032;SDS011;6583;42.632;23.298;2023-06-10T13:42:08;7.70;;;5.22;;
13032;SDS011;6583;42.632;23.298;2023-06-10T13:44:35;5.38;;;4.82;;
13032;SDS011;6583;42.632;23.298;2023-06-10T13:47:03;7.78;;;5.07;;
13032;SDS011;6583;42.632;23.298;2023-06-10T13:49:31;6.40;;;5.20;;
13032;SDS011;6583;42.632;23.298;2023-06-10T13:51:58;5.68;;;5.18;;
13032;SDS011;6583;42.632;23.298;2023-06-10T13:54:24;6.53;;;5.00;;
13032;SDS011;6583;42.632;23.298;2023-06-10T13:56:52;5.20;;;4.70;;
13032;SDS011;6583;42.632;23.298;2023-06-10T13:59:19;5.45;;;4.95;;
13032;SDS011;6583;42.632;23.298;2023-06-10T14:01:46;5.50;;;4.90;;
13032;SDS011;6583;42.632;23.298;2023-06-10T14:04:14;7.93;;;5.40;;
13032;SDS011;6583;42.632;23.298;2023-06-10T14:06:41;7.32;;;5.25;;
13032;SDS011;6583;42.632;23.298;2023-06-10T14:09:08;8.10;;;5.47;;
13032;SDS011;6583;42.632;23.298;2023-06-10T14:11:35;5.80;;;5.20;;
13032;SDS011;6583;42.632;23.298;2023-06-10T14:14:02;7.72;;;5.07;;
13032;SDS011;6583;42.632;23.298;2023-06-10T14:16:30;10.85;;;5.40;;
13032;SDS011;6583;42.632;23.298;2023-06-10T14:18:57;6.68;;;4.95;;
13032;SDS011;6583;42.632;23.298;2023-06-10T14:21:25;5.28;;;4.80;;
13032;SDS011;6583;42.632;23.298;2023-06-10T14:23:51;5.22;;;4.80;;
13032;SDS011;6583;42.632;23.298;2023-06-10T14:26:18;5.60;;;4.43;;
13032;SDS011;6583;42.632;23.298;2023-06-10T14:28:46;5.60;;;4.72;;
13032;SDS011;6583;42.632;23.298;2023-06-10T14:31:13;5.75;;;5.15;;
13032;SDS011;6583;42.632;23.298;2023-06-10T14:33:39;5.70;;;5.10;;
13032;SDS011;6583;42.632;23.298;2023-06-10T14:36:08;6.05;;;5.40;;
13032;SDS011;6583;42.632;23.298;2023-06-10T14:38:36;5.15;;;4.63;;
13032;SDS011;6583;42.632;23.298;2023-06-10T14:41:03;5.22;;;4.68;;
13032;SDS011;6583;42.632;23.298;2023-06-10T14:43:29;5.93;;;5.22;;
13032;SDS011;6583;42.632;23.298;2023-06-10T14:45:56;6.00;;;4.90;;